ITY635 LIRF-EDDF
Flight info
| Callsign | ITY635 |
|---|---|
| Flight time | 1h 35m |
| Altitude | 36000 |
| Route | SOVAN DCT AMTEL DCT BORMI DCT OZE DCT NAXAV DCT UNIMI L12 MOGTI Q163 OLASO/N0465F320 Q163 HAFUN/N0432F240 Q163 ETASA T163 SPESA SPESA5C |
| Aircraft | A320/M-SDE3FGHIRWY/LB1 |
Departure
| Time | 2026-05-01 12:25 |
|---|---|
| Airport | Rome–Fiumicino Leonardo da Vinci International Airport (LIRF) |
Arrival
| Time | 2026-05-01 14:01 |
|---|---|
| Airport | Frankfurt Main Airport (EDDF) |
| Time | Latitude | Longitude | Altitude | Speed | Heading |
|---|---|---|---|---|---|
| 2026-05-01 11:56 | 41.79814 | 12.25328 | 18 ft | 0 kts | 295° |
| 2026-05-01 12:15 | 41.79811 | 12.25336 | 16 ft | 3 kts | 296° |
| 2026-05-01 12:15 | 41.79801 | 12.25360 | 17 ft | 3 kts | 305° |
| 2026-05-01 12:15 | 41.79789 | 12.25379 | 19 ft | 3 kts | 340° |
| 2026-05-01 12:15 | 41.79777 | 12.25380 | 18 ft | 0 kts | 24° |
| 2026-05-01 12:18 | 41.79797 | 12.25392 | 18 ft | 5 kts | 24° |
| 2026-05-01 12:19 | 41.79835 | 12.25416 | 16 ft | 7 kts | 25° |
| 2026-05-01 12:19 | 41.79884 | 12.25447 | 16 ft | 9 kts | 25° |
| 2026-05-01 12:19 | 41.79946 | 12.25485 | 18 ft | 10 kts | 25° |
| 2026-05-01 12:19 | 41.80008 | 12.25537 | 17 ft | 11 kts | 62° |
| 2026-05-01 12:20 | 41.79992 | 12.25631 | 19 ft | 10 kts | 114° |
| 2026-05-01 12:20 | 41.79964 | 12.25710 | 18 ft | 9 kts | 115° |
| 2026-05-01 12:20 | 41.79940 | 12.25779 | 17 ft | 9 kts | 115° |
| 2026-05-01 12:20 | 41.79940 | 12.25863 | 17 ft | 9 kts | 47° |
| 2026-05-01 12:21 | 41.80001 | 12.25902 | 18 ft | 10 kts | 21° |
| 2026-05-01 12:21 | 41.80075 | 12.25948 | 19 ft | 13 kts | 25° |
| 2026-05-01 12:21 | 41.80164 | 12.26004 | 18 ft | 15 kts | 25° |
| 2026-05-01 12:21 | 41.80269 | 12.26067 | 15 ft | 18 kts | 24° |
| 2026-05-01 12:22 | 41.80379 | 12.26136 | 15 ft | 18 kts | 25° |
| 2026-05-01 12:22 | 41.80460 | 12.26176 | 17 ft | 19 kts | 13° |
| 2026-05-01 12:22 | 41.80559 | 12.26346 | 17 ft | 18 kts | 69° |
| 2026-05-01 12:22 | 41.80602 | 12.26503 | 16 ft | 17 kts | 71° |
| 2026-05-01 12:23 | 41.80645 | 12.26665 | 14 ft | 20 kts | 70° |
| 2026-05-01 12:23 | 41.80695 | 12.26842 | 13 ft | 20 kts | 72° |
| 2026-05-01 12:23 | 41.80732 | 12.26980 | 10 ft | 13 kts | 70° |
| 2026-05-01 12:23 | 41.80800 | 12.27042 | 10 ft | 14 kts | 356° |
| 2026-05-01 12:24 | 41.80892 | 12.26997 | 11 ft | 15 kts | 341° |
| 2026-05-01 12:24 | 41.80952 | 12.26907 | 11 ft | 14 kts | 261° |
| 2026-05-01 12:24 | 41.80914 | 12.26772 | 12 ft | 24 kts | 249° |
| 2026-05-01 12:24 | 41.80764 | 12.26222 | 20 ft | 98 kts | 250° |
| 2026-05-01 12:25 | 41.80453 | 12.25102 | 16 ft | 156 kts | 249° |
| 2026-05-01 12:25 | 41.79615 | 12.22086 | 985 ft | 173 kts | 251° |
| 2026-05-01 12:25 | 41.79243 | 12.20516 | 1465 ft | 185 kts | 268° |
| 2026-05-01 12:26 | 41.79428 | 12.18761 | 1797 ft | 200 kts | 299° |
| 2026-05-01 12:26 | 41.81127 | 12.15762 | 3246 ft | 207 kts | 312° |
| 2026-05-01 12:26 | 41.82032 | 12.14240 | 4005 ft | 210 kts | 313° |
| 2026-05-01 12:27 | 41.82946 | 12.12693 | 4761 ft | 213 kts | 312° |
| 2026-05-01 12:27 | 41.84687 | 12.10389 | 5937 ft | 214 kts | 334° |
| 2026-05-01 12:28 | 41.87798 | 12.09067 | 6624 ft | 257 kts | 348° |
| 2026-05-01 12:28 | 41.89559 | 12.08429 | 7295 ft | 266 kts | 348° |
| 2026-05-01 12:28 | 41.93165 | 12.07089 | 8992 ft | 271 kts | 347° |
| 2026-05-01 12:29 | 41.94987 | 12.06406 | 9839 ft | 273 kts | 348° |
| 2026-05-01 12:29 | 41.96862 | 12.06014 | 10623 ft | 276 kts | 358° |
| 2026-05-01 12:29 | 42.00992 | 12.05630 | 11039 ft | 323 kts | 359° |
| 2026-05-01 12:30 | 42.05712 | 12.05175 | 11786 ft | 349 kts | 358° |
| 2026-05-01 12:30 | 42.08146 | 12.04927 | 12480 ft | 352 kts | 358° |
| 2026-05-01 12:30 | 42.10594 | 12.04676 | 13203 ft | 354 kts | 358° |
| 2026-05-01 12:31 | 42.13057 | 12.04429 | 13923 ft | 356 kts | 358° |
| 2026-05-01 12:31 | 42.15528 | 12.04185 | 14560 ft | 357 kts | 358° |
| 2026-05-01 12:31 | 42.18007 | 12.03939 | 15255 ft | 357 kts | 357° |
| 2026-05-01 12:31 | 42.20472 | 12.03440 | 15885 ft | 359 kts | 353° |
| 2026-05-01 12:32 | 42.22941 | 12.02890 | 16542 ft | 360 kts | 354° |
| 2026-05-01 12:32 | 42.27880 | 12.01781 | 17819 ft | 364 kts | 354° |
| 2026-05-01 12:32 | 42.30383 | 12.01217 | 18447 ft | 365 kts | 354° |
| 2026-05-01 12:33 | 42.32897 | 12.00647 | 18973 ft | 367 kts | 354° |
| 2026-05-01 12:33 | 42.35427 | 12.00071 | 19494 ft | 369 kts | 354° |
| 2026-05-01 12:33 | 42.37960 | 11.99494 | 20002 ft | 370 kts | 354° |
| 2026-05-01 12:33 | 42.40507 | 11.98917 | 20461 ft | 372 kts | 355° |
| 2026-05-01 12:34 | 42.43068 | 11.98342 | 20924 ft | 374 kts | 355° |
| 2026-05-01 12:34 | 42.45643 | 11.97767 | 21385 ft | 376 kts | 355° |
| 2026-05-01 12:34 | 42.48227 | 11.97189 | 21841 ft | 377 kts | 355° |
| 2026-05-01 12:34 | 42.50824 | 11.96601 | 22269 ft | 379 kts | 355° |
| 2026-05-01 12:35 | 42.53432 | 11.96006 | 22703 ft | 381 kts | 355° |
| 2026-05-01 12:35 | 42.56054 | 11.95407 | 23136 ft | 382 kts | 355° |
| 2026-05-01 12:35 | 42.58645 | 11.94816 | 23545 ft | 383 kts | 355° |
| 2026-05-01 12:35 | 42.61278 | 11.94220 | 23887 ft | 385 kts | 356° |
| 2026-05-01 12:36 | 42.63939 | 11.93619 | 24150 ft | 389 kts | 355° |
| 2026-05-01 12:36 | 42.66615 | 11.93016 | 24456 ft | 391 kts | 355° |
| 2026-05-01 12:36 | 42.69301 | 11.92408 | 24768 ft | 392 kts | 355° |
| 2026-05-01 12:36 | 42.71996 | 11.91797 | 25072 ft | 394 kts | 355° |
| 2026-05-01 12:37 | 42.74710 | 11.91175 | 25387 ft | 396 kts | 355° |
| 2026-05-01 12:37 | 42.77430 | 11.90552 | 25676 ft | 397 kts | 355° |
| 2026-05-01 12:37 | 42.80168 | 11.89923 | 25968 ft | 399 kts | 355° |
| 2026-05-01 12:37 | 42.82896 | 11.89120 | 26217 ft | 406 kts | 348° |
| 2026-05-01 12:38 | 42.85511 | 11.87700 | 26458 ft | 415 kts | 340° |
| 2026-05-01 12:38 | 42.88070 | 11.85841 | 26704 ft | 418 kts | 338° |
| 2026-05-01 12:38 | 42.90639 | 11.83962 | 26974 ft | 419 kts | 338° |
| 2026-05-01 12:38 | 42.93217 | 11.82074 | 27220 ft | 421 kts | 338° |
| 2026-05-01 12:39 | 42.95794 | 11.80184 | 27491 ft | 421 kts | 338° |
| 2026-05-01 12:39 | 42.98368 | 11.78291 | 27835 ft | 419 kts | 338° |
| 2026-05-01 12:39 | 43.00936 | 11.76401 | 28180 ft | 418 kts | 338° |
| 2026-05-01 12:39 | 43.03495 | 11.74517 | 28486 ft | 418 kts | 339° |
| 2026-05-01 12:40 | 43.06062 | 11.72630 | 28710 ft | 420 kts | 339° |
| 2026-05-01 12:40 | 43.08642 | 11.70739 | 29017 ft | 419 kts | 339° |
| 2026-05-01 12:40 | 43.11213 | 11.68855 | 29347 ft | 419 kts | 339° |
| 2026-05-01 12:40 | 43.13751 | 11.66991 | 29611 ft | 418 kts | 338° |
| 2026-05-01 12:41 | 43.16307 | 11.65107 | 29945 ft | 417 kts | 338° |
| 2026-05-01 12:41 | 43.18863 | 11.63216 | 30292 ft | 417 kts | 338° |
| 2026-05-01 12:41 | 43.21476 | 11.61580 | 30582 ft | 409 kts | 346° |
| 2026-05-01 12:41 | 43.24200 | 11.60582 | 30840 ft | 403 kts | 355° |
| 2026-05-01 12:42 | 43.26973 | 11.60120 | 31048 ft | 402 kts | 358° |
| 2026-05-01 12:42 | 43.29761 | 11.59715 | 31285 ft | 403 kts | 358° |
| 2026-05-01 12:42 | 43.32514 | 11.59307 | 31543 ft | 402 kts | 358° |
| 2026-05-01 12:42 | 43.35296 | 11.58887 | 31811 ft | 402 kts | 357° |
| 2026-05-01 12:43 | 43.38070 | 11.58465 | 32093 ft | 401 kts | 357° |
| 2026-05-01 12:43 | 43.40844 | 11.58041 | 32380 ft | 401 kts | 357° |
| 2026-05-01 12:43 | 43.43618 | 11.57621 | 32666 ft | 400 kts | 357° |
| 2026-05-01 12:43 | 43.46388 | 11.57205 | 32925 ft | 401 kts | 358° |
| 2026-05-01 12:44 | 43.49164 | 11.56787 | 33191 ft | 401 kts | 358° |
| 2026-05-01 12:44 | 43.51941 | 11.56367 | 33471 ft | 401 kts | 358° |
| 2026-05-01 12:44 | 43.57475 | 11.55527 | 34049 ft | 399 kts | 358° |
| 2026-05-01 12:45 | 43.62958 | 11.54693 | 34549 ft | 398 kts | 357° |
| 2026-05-01 12:45 | 43.65714 | 11.54274 | 34751 ft | 399 kts | 357° |
| 2026-05-01 12:45 | 43.68476 | 11.53855 | 34950 ft | 399 kts | 357° |
| 2026-05-01 12:46 | 43.71239 | 11.53438 | 35176 ft | 399 kts | 356° |
| 2026-05-01 12:46 | 43.74001 | 11.53021 | 35350 ft | 399 kts | 356° |
| 2026-05-01 12:46 | 43.76765 | 11.52603 | 35589 ft | 399 kts | 356° |
| 2026-05-01 12:46 | 43.79520 | 11.52185 | 35811 ft | 398 kts | 356° |
| 2026-05-01 12:47 | 43.82272 | 11.51766 | 36039 ft | 398 kts | 355° |
| 2026-05-01 12:47 | 43.85021 | 11.51346 | 36231 ft | 397 kts | 355° |
| 2026-05-01 12:47 | 43.90558 | 11.50499 | 36323 ft | 404 kts | 355° |
| 2026-05-01 12:48 | 43.96158 | 11.49641 | 36328 ft | 406 kts | 356° |
| 2026-05-01 12:48 | 44.01736 | 11.48798 | 36328 ft | 406 kts | 355° |
| 2026-05-01 12:49 | 44.07366 | 11.47932 | 36334 ft | 409 kts | 355° |
| 2026-05-01 12:49 | 44.13031 | 11.47052 | 36337 ft | 409 kts | 355° |
| 2026-05-01 12:50 | 44.18693 | 11.46184 | 36342 ft | 409 kts | 355° |
| 2026-05-01 12:50 | 44.24360 | 11.45302 | 36343 ft | 410 kts | 355° |
| 2026-05-01 12:51 | 44.30034 | 11.44410 | 36363 ft | 410 kts | 355° |
| 2026-05-01 12:52 | 44.38503 | 11.43103 | 36368 ft | 410 kts | 355° |
| 2026-05-01 12:52 | 44.47016 | 11.41776 | 36371 ft | 411 kts | 355° |
| 2026-05-01 12:53 | 44.55542 | 11.40446 | 36371 ft | 412 kts | 355° |
| 2026-05-01 12:54 | 44.61237 | 11.39556 | 36362 ft | 412 kts | 355° |
| 2026-05-01 12:54 | 44.69742 | 11.38227 | 36338 ft | 413 kts | 355° |
| 2026-05-01 12:55 | 44.78326 | 11.36877 | 36347 ft | 414 kts | 355° |
| 2026-05-01 12:56 | 44.84056 | 11.35969 | 36343 ft | 414 kts | 355° |
| 2026-05-01 12:56 | 44.89816 | 11.35051 | 36339 ft | 415 kts | 355° |
| 2026-05-01 12:57 | 44.95540 | 11.34143 | 36343 ft | 416 kts | 355° |
| 2026-05-01 12:57 | 45.04136 | 11.32786 | 36356 ft | 416 kts | 355° |
| 2026-05-01 12:58 | 45.09899 | 11.31875 | 36357 ft | 417 kts | 355° |
| 2026-05-01 12:59 | 45.18548 | 11.30485 | 36359 ft | 417 kts | 355° |
| 2026-05-01 12:59 | 45.27203 | 11.29092 | 36364 ft | 418 kts | 355° |
| 2026-05-01 13:00 | 45.35870 | 11.27709 | 36366 ft | 418 kts | 355° |
| 2026-05-01 13:01 | 45.44541 | 11.26307 | 36374 ft | 418 kts | 355° |
| 2026-05-01 13:02 | 45.53189 | 11.24914 | 36375 ft | 419 kts | 355° |
| 2026-05-01 13:07 | 46.17295 | 11.16056 | 36355 ft | 423 kts | 356° |
| 2026-05-01 13:08 | 46.23136 | 11.15251 | 36371 ft | 424 kts | 356° |
| 2026-05-01 13:08 | 46.29012 | 11.14440 | 36376 ft | 425 kts | 356° |
| 2026-05-01 13:09 | 46.34892 | 11.13621 | 36381 ft | 424 kts | 356° |
| 2026-05-01 13:09 | 46.40774 | 11.12807 | 36325 ft | 424 kts | 356° |
| 2026-05-01 13:10 | 46.46659 | 11.12001 | 36312 ft | 425 kts | 356° |
| 2026-05-01 13:10 | 46.52546 | 11.11195 | 36306 ft | 425 kts | 356° |
| 2026-05-01 13:11 | 46.58441 | 11.10384 | 36310 ft | 425 kts | 356° |
| 2026-05-01 13:11 | 46.64300 | 11.09565 | 36308 ft | 425 kts | 356° |
| 2026-05-01 13:12 | 46.70198 | 11.08737 | 36319 ft | 426 kts | 357° |
| 2026-05-01 13:12 | 46.76095 | 11.07916 | 36317 ft | 426 kts | 356° |
| 2026-05-01 13:13 | 46.82001 | 11.07096 | 36315 ft | 426 kts | 356° |
| 2026-05-01 13:13 | 46.87806 | 11.05326 | 36298 ft | 430 kts | 341° |
| 2026-05-01 13:14 | 46.93287 | 11.01697 | 36297 ft | 433 kts | 338° |
| 2026-05-01 13:14 | 46.98760 | 10.98041 | 36293 ft | 433 kts | 339° |
| 2026-05-01 13:15 | 47.04234 | 10.94486 | 36296 ft | 433 kts | 339° |
| 2026-05-01 13:15 | 47.09748 | 10.90918 | 36294 ft | 433 kts | 339° |
| 2026-05-01 13:16 | 47.15262 | 10.87311 | 36300 ft | 434 kts | 339° |
| 2026-05-01 13:16 | 47.20772 | 10.83672 | 36297 ft | 434 kts | 338° |
| 2026-05-01 13:17 | 47.31797 | 10.76386 | 36286 ft | 434 kts | 338° |
| 2026-05-01 13:18 | 47.40049 | 10.70938 | 36296 ft | 435 kts | 339° |
| 2026-05-01 13:18 | 47.45665 | 10.67582 | 36291 ft | 434 kts | 341° |
| 2026-05-01 13:19 | 47.51314 | 10.64397 | 36315 ft | 434 kts | 341° |
| 2026-05-01 13:20 | 47.59745 | 10.59544 | 36317 ft | 435 kts | 340° |
| 2026-05-01 13:20 | 47.65372 | 10.56224 | 36321 ft | 435 kts | 340° |
| 2026-05-01 13:21 | 47.73819 | 10.51235 | 36308 ft | 436 kts | 340° |
| 2026-05-01 13:21 | 47.79459 | 10.47913 | 36314 ft | 436 kts | 340° |
| 2026-05-01 13:22 | 47.85066 | 10.44587 | 36329 ft | 436 kts | 340° |
| 2026-05-01 13:22 | 47.90712 | 10.41229 | 36329 ft | 437 kts | 340° |
| 2026-05-01 13:23 | 47.96361 | 10.37876 | 36321 ft | 437 kts | 340° |
| 2026-05-01 13:23 | 48.02007 | 10.34511 | 36318 ft | 437 kts | 340° |
| 2026-05-01 13:24 | 48.07658 | 10.31132 | 36335 ft | 437 kts | 340° |
| 2026-05-01 13:25 | 48.16089 | 10.26057 | 36318 ft | 437 kts | 339° |
| 2026-05-01 13:25 | 48.21575 | 10.22133 | 36313 ft | 440 kts | 328° |
| 2026-05-01 13:26 | 48.26406 | 10.16467 | 36319 ft | 441 kts | 323° |
| 2026-05-01 13:26 | 48.31177 | 10.10676 | 36324 ft | 441 kts | 323° |
| 2026-05-01 13:27 | 48.35954 | 10.04867 | 36325 ft | 442 kts | 323° |
| 2026-05-01 13:27 | 48.43119 | 9.96152 | 36326 ft | 442 kts | 323° |
| 2026-05-01 13:28 | 48.49467 | 9.88380 | 36326 ft | 441 kts | 323° |
| 2026-05-01 13:29 | 48.58975 | 9.76673 | 36323 ft | 441 kts | 322° |
| 2026-05-01 13:31 | 48.72901 | 9.58466 | 36306 ft | 441 kts | 320° |
| 2026-05-01 13:32 | 48.84423 | 9.43216 | 36306 ft | 441 kts | 320° |
| 2026-05-01 13:33 | 48.91442 | 9.34178 | 36140 ft | 441 kts | 327° |
| 2026-05-01 13:33 | 48.96834 | 9.29799 | 35499 ft | 439 kts | 334° |
| 2026-05-01 13:34 | 49.02265 | 9.25695 | 34374 ft | 433 kts | 335° |
| 2026-05-01 13:34 | 49.07601 | 9.21642 | 33027 ft | 429 kts | 334° |
| 2026-05-01 13:35 | 49.12907 | 9.17578 | 31734 ft | 424 kts | 334° |
| 2026-05-01 13:35 | 49.15572 | 9.15647 | 31107 ft | 426 kts | 339° |
| 2026-05-01 13:35 | 49.21300 | 9.13590 | 29810 ft | 422 kts | 357° |
| 2026-05-01 13:36 | 49.24220 | 9.13574 | 29112 ft | 418 kts | 5° |
| 2026-05-01 13:36 | 49.27108 | 9.13984 | 28431 ft | 416 kts | 6° |
| 2026-05-01 13:36 | 49.32845 | 9.14807 | 27112 ft | 412 kts | 6° |
| 2026-05-01 13:37 | 49.35693 | 9.15210 | 26480 ft | 410 kts | 6° |
| 2026-05-01 13:37 | 49.38529 | 9.15614 | 25853 ft | 407 kts | 7° |
| 2026-05-01 13:37 | 49.41341 | 9.16021 | 25244 ft | 405 kts | 6° |
| 2026-05-01 13:37 | 49.44146 | 9.16427 | 24649 ft | 403 kts | 7° |
| 2026-05-01 13:38 | 49.49680 | 9.17219 | 23431 ft | 401 kts | 6° |
| 2026-05-01 13:38 | 49.52454 | 9.17614 | 22749 ft | 400 kts | 7° |
| 2026-05-01 13:38 | 49.55226 | 9.18009 | 22087 ft | 400 kts | 6° |
| 2026-05-01 13:39 | 49.57984 | 9.18408 | 21418 ft | 394 kts | 7° |
| 2026-05-01 13:39 | 49.60668 | 9.18792 | 20794 ft | 382 kts | 6° |
| 2026-05-01 13:39 | 49.63248 | 9.19508 | 20175 ft | 373 kts | 19° |
| 2026-05-01 13:39 | 49.65651 | 9.20932 | 19567 ft | 368 kts | 28° |
| 2026-05-01 13:40 | 49.67812 | 9.22972 | 18869 ft | 362 kts | 40° |
| 2026-05-01 13:40 | 49.69669 | 9.25547 | 18385 ft | 357 kts | 49° |
| 2026-05-01 13:40 | 49.71458 | 9.28142 | 17901 ft | 358 kts | 38° |
| 2026-05-01 13:40 | 49.73584 | 9.30129 | 17427 ft | 358 kts | 28° |
| 2026-05-01 13:41 | 49.75912 | 9.31477 | 16940 ft | 358 kts | 18° |
| 2026-05-01 13:41 | 49.78357 | 9.32299 | 16491 ft | 358 kts | 12° |
| 2026-05-01 13:41 | 49.80843 | 9.32539 | 16064 ft | 360 kts | 357° |
| 2026-05-01 13:41 | 49.83283 | 9.31701 | 15640 ft | 360 kts | 340° |
| 2026-05-01 13:42 | 49.85474 | 9.29815 | 15188 ft | 361 kts | 323° |
| 2026-05-01 13:42 | 49.87217 | 9.27024 | 14759 ft | 361 kts | 306° |
| 2026-05-01 13:42 | 49.88364 | 9.23625 | 14332 ft | 360 kts | 288° |
| 2026-05-01 13:42 | 49.89095 | 9.19909 | 13828 ft | 359 kts | 286° |
| 2026-05-01 13:43 | 49.89795 | 9.16230 | 13122 ft | 356 kts | 285° |
| 2026-05-01 13:43 | 49.90490 | 9.12562 | 12724 ft | 352 kts | 285° |
| 2026-05-01 13:43 | 49.91177 | 9.08929 | 12299 ft | 349 kts | 285° |
| 2026-05-01 13:43 | 49.91861 | 9.05317 | 11855 ft | 347 kts | 285° |
| 2026-05-01 13:44 | 49.92541 | 9.01747 | 11456 ft | 343 kts | 285° |
| 2026-05-01 13:44 | 49.93213 | 8.98253 | 11246 ft | 327 kts | 285° |
| 2026-05-01 13:44 | 49.93844 | 8.94971 | 10957 ft | 310 kts | 285° |
| 2026-05-01 13:44 | 49.94446 | 8.91806 | 10468 ft | 303 kts | 284° |
| 2026-05-01 13:45 | 49.95040 | 8.88671 | 10042 ft | 302 kts | 284° |
| 2026-05-01 13:45 | 49.95621 | 8.85598 | 9706 ft | 299 kts | 284° |
| 2026-05-01 13:45 | 49.96203 | 8.82516 | 9329 ft | 296 kts | 284° |
| 2026-05-01 13:45 | 49.96781 | 8.79453 | 8932 ft | 296 kts | 284° |
| 2026-05-01 13:46 | 49.97358 | 8.76398 | 8587 ft | 293 kts | 284° |
| 2026-05-01 13:46 | 49.97761 | 8.73328 | 8336 ft | 288 kts | 272° |
| 2026-05-01 13:46 | 49.97696 | 8.70239 | 8325 ft | 286 kts | 258° |
| 2026-05-01 13:46 | 49.97189 | 8.67270 | 8325 ft | 284 kts | 246° |
| 2026-05-01 13:47 | 49.96499 | 8.64395 | 8331 ft | 284 kts | 246° |
| 2026-05-01 13:47 | 49.95805 | 8.61519 | 8330 ft | 285 kts | 246° |
| 2026-05-01 13:47 | 49.95110 | 8.58644 | 8330 ft | 284 kts | 246° |
| 2026-05-01 13:47 | 49.94414 | 8.55769 | 8327 ft | 284 kts | 246° |
| 2026-05-01 13:48 | 49.93720 | 8.52897 | 8321 ft | 284 kts | 246° |
| 2026-05-01 13:48 | 49.93026 | 8.50021 | 8326 ft | 285 kts | 247° |
| 2026-05-01 13:48 | 49.92341 | 8.47175 | 8330 ft | 285 kts | 246° |
| 2026-05-01 13:48 | 49.91646 | 8.44295 | 8313 ft | 285 kts | 246° |
| 2026-05-01 13:49 | 49.90952 | 8.41422 | 8316 ft | 285 kts | 246° |
| 2026-05-01 13:49 | 49.90257 | 8.38546 | 8324 ft | 284 kts | 246° |
| 2026-05-01 13:49 | 49.89560 | 8.35669 | 8319 ft | 284 kts | 246° |
| 2026-05-01 13:49 | 49.88867 | 8.32807 | 8193 ft | 282 kts | 246° |
| 2026-05-01 13:50 | 49.88181 | 8.29972 | 7810 ft | 280 kts | 246° |
| 2026-05-01 13:50 | 49.87496 | 8.27154 | 7443 ft | 279 kts | 246° |
| 2026-05-01 13:50 | 49.86822 | 8.24389 | 7092 ft | 277 kts | 246° |
| 2026-05-01 13:50 | 49.86146 | 8.21602 | 6754 ft | 275 kts | 247° |
| 2026-05-01 13:51 | 49.85478 | 8.18828 | 6377 ft | 274 kts | 247° |
| 2026-05-01 13:51 | 49.84820 | 8.16067 | 6003 ft | 273 kts | 246° |
| 2026-05-01 13:51 | 49.84168 | 8.13308 | 5650 ft | 271 kts | 246° |
| 2026-05-01 13:51 | 49.83544 | 8.10638 | 5522 ft | 257 kts | 246° |
| 2026-05-01 13:52 | 49.82968 | 8.08086 | 5399 ft | 246 kts | 250° |
| 2026-05-01 13:52 | 49.82794 | 8.05483 | 5263 ft | 242 kts | 274° |
| 2026-05-01 13:52 | 49.83332 | 8.03042 | 5084 ft | 241 kts | 301° |
| 2026-05-01 13:52 | 49.84501 | 8.01211 | 4770 ft | 241 kts | 329° |
| 2026-05-01 13:53 | 49.86033 | 8.00362 | 4438 ft | 237 kts | 357° |
| 2026-05-01 13:53 | 49.88996 | 8.01752 | 4008 ft | 222 kts | 41° |
| 2026-05-01 13:53 | 49.90240 | 8.03188 | 3992 ft | 223 kts | 41° |
| 2026-05-01 13:54 | 49.91488 | 8.04622 | 3995 ft | 224 kts | 41° |
| 2026-05-01 13:54 | 49.92685 | 8.06168 | 4001 ft | 222 kts | 52° |
| 2026-05-01 13:54 | 49.93556 | 8.08115 | 3994 ft | 218 kts | 68° |
| 2026-05-01 13:54 | 49.94156 | 8.10261 | 3998 ft | 216 kts | 73° |
| 2026-05-01 13:55 | 49.94692 | 8.12447 | 3998 ft | 217 kts | 73° |
| 2026-05-01 13:55 | 49.95224 | 8.14637 | 3995 ft | 217 kts | 72° |
| 2026-05-01 13:55 | 49.95759 | 8.16834 | 3997 ft | 216 kts | 74° |
| 2026-05-01 13:55 | 49.96291 | 8.19019 | 4002 ft | 212 kts | 73° |
| 2026-05-01 13:56 | 49.96788 | 8.21053 | 4008 ft | 193 kts | 73° |
| 2026-05-01 13:56 | 49.97254 | 8.22974 | 3882 ft | 189 kts | 72° |
| 2026-05-01 13:56 | 49.97713 | 8.24864 | 3630 ft | 183 kts | 73° |
| 2026-05-01 13:56 | 49.98159 | 8.26707 | 3392 ft | 182 kts | 72° |
| 2026-05-01 13:57 | 49.98600 | 8.28530 | 3157 ft | 180 kts | 73° |
| 2026-05-01 13:57 | 49.98892 | 8.29736 | 3001 ft | 180 kts | 72° |
| 2026-05-01 13:57 | 49.99483 | 8.32181 | 2693 ft | 182 kts | 73° |
| 2026-05-01 13:57 | 49.99925 | 8.34007 | 2440 ft | 179 kts | 73° |
| 2026-05-01 13:58 | 50.00363 | 8.35819 | 2204 ft | 178 kts | 73° |
| 2026-05-01 13:58 | 50.00792 | 8.37593 | 1959 ft | 170 kts | 72° |
| 2026-05-01 13:58 | 50.01189 | 8.39234 | 1753 ft | 152 kts | 74° |
| 2026-05-01 13:58 | 50.01543 | 8.40701 | 1578 ft | 142 kts | 73° |
| 2026-05-01 13:59 | 50.01880 | 8.42101 | 1375 ft | 133 kts | 73° |
| 2026-05-01 13:59 | 50.02206 | 8.43461 | 1201 ft | 135 kts | 75° |
| 2026-05-01 13:59 | 50.02526 | 8.44795 | 1002 ft | 134 kts | 72° |
| 2026-05-01 13:59 | 50.02850 | 8.46142 | 825 ft | 134 kts | 74° |
| 2026-05-01 14:00 | 50.03180 | 8.47494 | 644 ft | 132 kts | 73° |
| 2026-05-01 14:00 | 50.03501 | 8.48823 | 521 ft | 132 kts | 75° |
| 2026-05-01 14:00 | 50.03816 | 8.50160 | 358 ft | 130 kts | 73° |
| 2026-05-01 14:00 | 50.04078 | 8.51275 | 347 ft | 86 kts | 69° |
| 2026-05-01 14:01 | 50.04237 | 8.51928 | 347 ft | 49 kts | 70° |
| 2026-05-01 14:01 | 50.04347 | 8.52390 | 349 ft | 41 kts | 71° |
| 2026-05-01 14:01 | 50.04391 | 8.52643 | 346 ft | 21 kts | 84° |
| 2026-05-01 14:01 | 50.04388 | 8.52839 | 346 ft | 14 kts | 95° |
| 2026-05-01 14:02 | 50.04376 | 8.52985 | 346 ft | 14 kts | 98° |
| 2026-05-01 14:02 | 50.04363 | 8.53108 | 346 ft | 11 kts | 100° |
| 2026-05-01 14:02 | 50.04351 | 8.53240 | 346 ft | 13 kts | 95° |
| 2026-05-01 14:02 | 50.04374 | 8.53387 | 348 ft | 14 kts | 68° |
| 2026-05-01 14:03 | 50.04396 | 8.53504 | 346 ft | 12 kts | 79° |
| 2026-05-01 14:03 | 50.04405 | 8.53640 | 346 ft | 14 kts | 84° |
| 2026-05-01 14:03 | 50.04416 | 8.53799 | 348 ft | 16 kts | 84° |
| 2026-05-01 14:03 | 50.04428 | 8.53979 | 355 ft | 17 kts | 83° |
| 2026-05-01 14:04 | 50.04439 | 8.54165 | 346 ft | 18 kts | 85° |
| 2026-05-01 14:04 | 50.04450 | 8.54356 | 348 ft | 14 kts | 85° |
| 2026-05-01 14:04 | 50.04449 | 8.54480 | 349 ft | 12 kts | 95° |
| 2026-05-01 14:04 | 50.04436 | 8.54566 | 349 ft | 13 kts | 112° |
| 2026-05-01 14:05 | 50.04355 | 8.54728 | 350 ft | 16 kts | 141° |
| 2026-05-01 14:05 | 50.04270 | 8.54799 | 348 ft | 9 kts | 159° |
| 2026-05-01 14:05 | 50.04200 | 8.54838 | 347 ft | 12 kts | 160° |
| 2026-05-01 14:05 | 50.04117 | 8.54884 | 351 ft | 14 kts | 160° |
| 2026-05-01 14:06 | 50.04055 | 8.54919 | 349 ft | 7 kts | 160° |
| 2026-05-01 14:06 | 50.04018 | 8.54967 | 349 ft | 8 kts | 111° |
| 2026-05-01 14:06 | 50.04029 | 8.55058 | 354 ft | 10 kts | 68° |
| 2026-05-01 14:06 | 50.04055 | 8.55169 | 353 ft | 12 kts | 70° |
| 2026-05-01 14:07 | 50.04083 | 8.55283 | 353 ft | 10 kts | 69° |
| 2026-05-01 14:07 | 50.04111 | 8.55398 | 351 ft | 12 kts | 69° |
| 2026-05-01 14:07 | 50.04143 | 8.55531 | 355 ft | 12 kts | 69° |
| 2026-05-01 14:08 | 50.04162 | 8.55611 | 353 ft | 3 kts | 70° |
| 2026-05-01 14:08 | 50.04169 | 8.55640 | 353 ft | 6 kts | 70° |
| 2026-05-01 14:08 | 50.04194 | 8.55750 | 347 ft | 13 kts | 70° |
| 2026-05-01 14:08 | 50.04226 | 8.55881 | 353 ft | 10 kts | 68° |
| 2026-05-01 14:09 | 50.04244 | 8.55955 | 346 ft | 8 kts | 71° |
| 2026-05-01 14:09 | 50.04230 | 8.56030 | 347 ft | 8 kts | 137° |